Time;durP1;ratioP1;P1;durP2;ratioP2;P2;SDS_P1;SDS_P2;PMS_P1;PMS_P2;Temp;Humidity;BMP_temperature;BMP_pressure;BME280_temperature;BME280_humidity;BME280_pressure;Samples;Min_cycle;Max_cycle;Signal;HPM_P1;HPM_P2
2022/09/25 00:01:13;;;;;;;3.83;3.17;;;19.00;99.90;;;;;;4148139;28;20267;-73
2022/09/25 00:03:17;;;;;;;2.85;2.63;;;19.00;99.90;;;;;;4147705;28;20264;-73
2022/09/25 00:05:19;;;;;;;4.03;3.13;;;18.90;99.90;;;;;;4147976;28;20225;-72
2022/09/25 00:07:24;;;;;;;4.97;3.22;;;19.00;99.90;;;;;;4148202;28;20221;-73
2022/09/25 00:09:26;;;;;;;4.22;3.30;;;19.00;99.90;;;;;;4147940;28;20284;-73
2022/09/25 00:11:31;;;;;;;5.03;3.28;;;19.00;99.90;;;;;;4148147;28;20295;-73
2022/09/25 00:13:34;;;;;;;3.80;3.42;;;18.90;99.90;;;;;;4147762;28;20221;-73
2022/09/25 00:15:37;;;;;;;3.13;2.80;;;19.00;99.90;;;;;;4147678;28;20233;-73
2022/09/25 00:17:39;;;;;;;3.63;2.72;;;19.00;99.90;;;;;;4147523;28;20275;-73
2022/09/25 00:19:49;;;;;;;3.47;2.85;;;19.00;99.90;;;;;;4144622;28;20213;-73
2022/09/25 00:21:52;;;;;;;3.78;3.15;;;19.00;99.90;;;;;;4150076;28;20264;-73
2022/09/25 00:23:56;;;;;;;3.10;2.80;;;19.00;99.90;;;;;;4147729;28;20273;-73
2022/09/25 00:25:59;;;;;;;3.72;2.92;;;19.00;99.90;;;;;;4147609;28;20229;-73
2022/09/25 00:28:02;;;;;;;3.90;3.22;;;19.00;99.90;;;;;;4147231;28;20270;-74
2022/09/25 00:30:05;;;;;;;3.40;3.10;;;19.00;99.90;;;;;;4147750;28;20233;-73
2022/09/25 00:32:09;;;;;;;3.30;3.00;;;19.00;99.90;;;;;;4147609;28;20214;-72
2022/09/25 00:34:12;;;;;;;3.88;3.20;;;19.00;99.90;;;;;;4147805;28;20220;-73
2022/09/25 00:36:14;;;;;;;5.00;2.90;;;18.90;99.90;;;;;;4147710;28;20263;-74
2022/09/25 00:38:16;;;;;;;3.22;2.92;;;18.90;99.90;;;;;;4147578;28;20217;-73
2022/09/25 00:40:20;;;;;;;3.53;2.90;;;18.90;99.90;;;;;;4147407;28;20775;-73
2022/09/25 00:42:23;;;;;;;3.60;3.05;;;18.90;99.90;;;;;;4147459;28;20221;-73
2022/09/25 00:44:56;;;;;;;4.35;2.80;;;18.90;99.90;;;;;;4147401;28;20233;-73
2022/09/25 00:46:59;;;;;;;3.20;2.85;;;19.00;99.90;;;;;;4147702;28;20221;-73
2022/09/25 00:49:04;;;;;;;3.55;3.20;;;19.00;99.90;;;;;;4147343;28;20267;-73
2022/09/25 00:51:07;;;;;;;2.88;2.53;;;18.90;99.90;;;;;;4131300;28;20217;-73
2022/09/25 00:53:13;;;;;;;4.25;3.10;;;18.90;99.90;;;;;;4130979;28;20225;-73
2022/09/25 00:55:15;;;;;;;3.92;2.97;;;18.90;99.90;;;;;;4124799;28;20257;-73
2022/09/25 00:57:21;;;;;;;3.85;3.20;;;18.90;99.90;;;;;;4130999;28;20218;-73
2022/09/25 00:59:27;;;;;;;2.78;2.53;;;18.90;99.90;;;;;;4131606;28;20265;-73
2022/09/25 01:01:30;;;;;;;3.75;3.22;;;18.90;99.90;;;;;;4131330;28;20268;-73
2022/09/25 01:03:32;;;;;;;3.40;2.80;;;18.90;99.90;;;;;;4131263;28;20279;-72
2022/09/25 01:05:36;;;;;;;3.80;3.08;;;18.90;99.90;;;;;;4131250;28;20272;-73
2022/09/25 01:07:42;;;;;;;3.47;3.17;;;18.90;99.90;;;;;;4131254;28;20268;-73
2022/09/25 01:09:46;;;;;;;3.95;3.33;;;18.90;99.90;;;;;;4131268;28;20710;-73
2022/09/25 01:11:48;;;;;;;4.63;3.10;;;18.90;99.90;;;;;;4131379;28;20269;-73
2022/09/25 01:13:55;;;;;;;3.40;2.80;;;18.90;99.90;;;;;;4131191;28;20225;-73
2022/09/25 01:16:07;;;;;;;3.65;3.03;;;18.90;99.90;;;;;;4131250;28;20225;-73
2022/09/25 01:18:19;;;;;;;3.33;2.70;;;18.90;99.90;;;;;;4131400;28;20647;-73
2022/09/25 01:20:35;;;;;;;4.20;2.78;;;19.00;99.90;;;;;;4131489;28;20213;-73
2022/09/25 01:23:00;;;;;;;3.20;2.70;;;18.90;99.90;;;;;;4134089;28;20651;-73
2022/09/25 01:25:11;;;;;;;3.15;2.85;;;18.90;99.90;;;;;;4118622;28;20221;-73
2022/09/25 01:27:33;;;;;;;4.38;2.88;;;18.90;99.90;;;;;;4131263;28;20269;-72
2022/09/25 01:29:44;;;;;;;3.22;2.92;;;18.90;99.90;;;;;;4131096;28;20214;-72
2022/09/25 01:31:54;;;;;;;3.45;2.88;;;18.90;99.90;;;;;;4130906;28;20229;-73
2022/09/25 01:34:02;;;;;;;4.07;3.05;;;18.90;99.90;;;;;;4130892;28;20272;-73
2022/09/25 01:36:13;;;;;;;3.50;2.75;;;18.90;99.90;;;;;;4134388;28;20288;-73
2022/09/25 01:38:26;;;;;;;3.45;2.75;;;18.90;99.90;;;;;;4134317;28;20623;-73
2022/09/25 01:40:33;;;;;;;3.50;3.00;;;18.90;99.90;;;;;;4134545;28;20225;-73
2022/09/25 01:42:42;;;;;;;3.13;2.78;;;18.90;99.90;;;;;;4134308;28;20218;-73
2022/09/25 01:44:49;;;;;;;3.45;2.88;;;18.90;99.90;;;;;;4134086;28;20587;-73
2022/09/25 01:46:54;;;;;;;3.00;2.70;;;18.90;99.90;;;;;;4133636;28;20217;-73
2022/09/25 01:49:01;;;;;;;2.70;2.50;;;18.90;99.90;;;;;;4133916;28;20213;-73
2022/09/25 01:51:08;;;;;;;4.30;2.50;;;18.90;99.90;;;;;;4141792;28;20315;-73
2022/09/25 01:53:16;;;;;;;2.67;2.47;;;18.90;99.90;;;;;;4145349;28;20279;-73
2022/09/25 01:55:23;;;;;;;3.50;2.83;;;18.90;99.90;;;;;;4149332;28;20208;-73
2022/09/25 01:57:31;;;;;;;2.78;2.50;;;18.90;99.90;;;;;;4150162;28;20628;-73
2022/09/25 01:59:37;;;;;;;3.50;3.05;;;18.90;99.90;;;;;;4149843;28;20275;-73
2022/09/25 02:01:42;;;;;;;5.88;2.80;;;18.90;99.90;;;;;;4149479;28;20263;-73
2022/09/25 02:03:50;;;;;;;3.55;2.80;;;18.90;99.90;;;;;;4136324;28;20221;-72
2022/09/25 02:05:55;;;;;;;3.60;2.60;;;18.90;99.90;;;;;;4149545;28;20271;-72
2022/09/25 02:08:02;;;;;;;4.93;3.33;;;18.90;99.90;;;;;;4149340;28;20217;-73
2022/09/25 02:10:10;;;;;;;4.03;3.30;;;18.90;99.90;;;;;;4149353;28;20232;-73
2022/09/25 02:12:17;;;;;;;3.30;2.67;;;18.80;99.90;;;;;;4149847;28;20236;-73
2022/09/25 02:14:23;;;;;;;2.90;2.63;;;18.90;99.90;;;;;;4149535;28;20240;-73
2022/09/25 02:16:31;;;;;;;2.97;2.67;;;18.80;99.90;;;;;;4149029;28;20310;-73
2022/09/25 02:21:00;;;;;;;3.17;2.50;;;18.90;99.90;;;;;;4149523;28;20201;-73
2022/09/25 02:23:10;;;;;;;2.88;2.50;;;18.90;99.90;;;;;;4148136;28;20626;-76
2022/09/25 02:25:17;;;;;;;3.28;2.60;;;18.80;99.90;;;;;;4147312;28;20213;-76
2022/09/25 02:27:21;;;;;;;3.80;2.72;;;18.80;99.90;;;;;;4147380;28;20263;-76
2022/09/25 02:29:24;;;;;;;3.55;2.50;;;18.80;99.90;;;;;;4147380;28;20217;-76
2022/09/25 02:31:29;;;;;;;4.40;3.20;;;18.80;99.90;;;;;;4147341;28;20237;-76
2022/09/25 02:33:32;;;;;;;3.15;2.58;;;18.80;99.90;;;;;;4147835;28;20612;-76
2022/09/25 02:35:36;;;;;;;2.60;2.40;;;18.80;99.90;;;;;;4147517;28;20684;-76
2022/09/25 02:37:38;;;;;;;2.72;2.30;;;18.80;99.90;;;;;;4147095;28;20224;-76
2022/09/25 02:39:43;;;;;;;2.78;2.47;;;18.80;99.90;;;;;;4147571;28;20225;-76
2022/09/25 02:41:57;;;;;;;3.72;2.85;;;18.80;99.90;;;;;;4147505;28;20963;-76
2022/09/25 02:44:12;;;;;;;3.60;2.55;;;18.80;99.90;;;;;;4147535;28;20661;-76
2022/09/25 02:46:21;;;;;;;3.92;2.78;;;18.80;99.90;;;;;;4136167;28;20217;-76
2022/09/25 02:48:33;;;;;;;3.40;2.47;;;18.80;99.90;;;;;;4147892;28;20224;-76
2022/09/25 02:50:46;;;;;;;3.58;2.75;;;18.80;99.90;;;;;;4146577;28;20295;-76
2022/09/25 02:52:54;;;;;;;2.33;2.08;;;18.80;99.90;;;;;;4147236;28;20217;-76
2022/09/25 02:55:03;;;;;;;3.00;2.70;;;18.80;99.90;;;;;;4146881;28;20570;-76
2022/09/25 02:57:10;;;;;;;3.33;3.00;;;18.80;99.90;;;;;;4147306;28;20252;-76
2022/09/25 02:59:18;;;;;;;3.42;2.72;;;18.80;99.90;;;;;;4147251;28;20605;-76
2022/09/25 03:01:24;;;;;;;2.78;2.53;;;18.80;99.90;;;;;;4147313;28;20224;-76
2022/09/25 03:03:27;;;;;;;2.80;2.60;;;18.80;99.90;;;;;;4147229;28;20217;-76
2022/09/25 03:05:31;;;;;;;4.07;2.70;;;18.80;99.90;;;;;;4145206;28;20217;-76
2022/09/25 03:08:36;;;;;;;2.72;2.50;;;18.80;99.90;;;;;;4146643;28;20271;-76
2022/09/25 03:09:57;;;;;;;3.08;2.72;;;18.80;99.90;;;;;;4143839;28;20221;-76
2022/09/25 03:12:03;;;;;;;3.40;2.60;;;18.80;99.90;;;;;;4145247;28;20734;-76
2022/09/25 03:14:05;;;;;;;4.13;2.45;;;18.80;99.90;;;;;;4146499;28;20287;-76
2022/09/25 03:16:14;;;;;;;3.30;2.50;;;18.80;99.90;;;;;;4146749;28;20217;-76
2022/09/25 03:18:17;;;;;;;2.35;2.10;;;18.80;99.90;;;;;;4146644;28;20665;-76
2022/09/25 03:20:19;;;;;;;2.70;2.35;;;18.80;99.90;;;;;;4146975;28;20225;-76
2022/09/25 03:22:21;;;;;;;2.67;2.30;;;18.80;99.90;;;;;;4148012;28;20217;-76
2022/09/25 03:24:26;;;;;;;3.78;2.88;;;18.80;99.90;;;;;;4148233;28;20259;-76
2022/09/25 03:26:29;;;;;;;2.35;2.15;;;18.80;99.90;;;;;;4147861;28;20271;-76
2022/09/25 03:28:31;;;;;;;2.60;2.40;;;18.80;99.90;;;;;;4147431;28;20263;-76
2022/09/25 03:30:34;;;;;;;3.50;2.45;;;18.70;99.90;;;;;;4146628;28;20213;-76
2022/09/25 03:32:37;;;;;;;3.20;2.38;;;18.80;99.90;;;;;;4146726;28;20221;-76
2022/09/25 03:34:40;;;;;;;3.95;2.60;;;18.80;99.90;;;;;;4138236;28;20539;-76
2022/09/25 03:36:45;;;;;;;3.45;2.42;;;18.70;99.90;;;;;;4146937;28;20221;-76
2022/09/25 03:38:49;;;;;;;2.88;2.50;;;18.70;99.90;;;;;;4146631;28;20221;-76
2022/09/25 03:40:53;;;;;;;3.15;2.60;;;18.70;99.90;;;;;;4146899;28;20220;-76
2022/09/25 03:42:55;;;;;;;2.85;2.35;;;18.70;99.90;;;;;;4146268;28;20263;-76
2022/09/25 03:44:58;;;;;;;3.88;2.80;;;18.80;99.90;;;;;;4146315;28;20225;-75
2022/09/25 03:47:00;;;;;;;3.38;2.55;;;18.70;99.90;;;;;;4146292;28;20271;-76
2022/09/25 03:49:03;;;;;;;3.63;2.80;;;18.70;99.90;;;;;;4145758;28;20221;-76
2022/09/25 03:51:06;;;;;;;3.92;2.30;;;18.70;99.90;;;;;;4145542;28;20241;-76
2022/09/25 03:53:08;;;;;;;4.45;2.45;;;18.70;99.90;;;;;;4146302;28;20654;-76
2022/09/25 03:55:11;;;;;;;3.08;2.35;;;18.70;99.90;;;;;;4146325;28;20725;-76
2022/09/25 03:57:15;;;;;;;3.28;2.53;;;18.70;99.90;;;;;;4145706;28;20221;-76
2022/09/25 03:59:17;;;;;;;2.72;2.47;;;18.70;99.90;;;;;;4146430;28;20217;-76
2022/09/25 04:01:20;;;;;;;2.70;2.38;;;18.70;99.90;;;;;;4146251;28;20670;-76
2022/09/25 04:03:23;;;;;;;3.67;2.67;;;18.70;99.90;;;;;;4146759;28;20666;-73
2022/09/25 04:05:25;;;;;;;3.08;2.30;;;18.70;99.90;;;;;;4147908;28;20221;-72
2022/09/25 04:07:28;;;;;;;4.05;2.70;;;18.70;99.90;;;;;;4147687;28;20209;-72
2022/09/25 04:09:30;;;;;;;2.45;2.25;;;18.70;99.90;;;;;;4147706;28;20225;-73
2022/09/25 04:11:33;;;;;;;3.47;2.45;;;18.70;99.90;;;;;;4147883;28;20303;-73
2022/09/25 04:13:37;;;;;;;4.15;2.40;;;18.70;99.90;;;;;;4147927;28;20674;-73
2022/09/25 04:15:41;;;;;;;3.00;2.70;;;18.70;99.90;;;;;;4147506;28;20221;-73
2022/09/25 04:17:44;;;;;;;4.25;2.75;;;18.70;99.90;;;;;;4147637;28;20623;-73
2022/09/25 04:19:46;;;;;;;3.58;2.33;;;18.70;99.90;;;;;;4134855;28;20616;-73
2022/09/25 04:21:49;;;;;;;3.85;2.58;;;18.70;99.90;;;;;;4147897;28;20712;-72
2022/09/25 04:26:08;;;;;;;2.30;2.10;;;18.70;99.90;;;;;;4146456;28;20204;-72
2022/09/25 04:28:10;;;;;;;3.45;2.53;;;18.70;99.90;;;;;;4135628;28;20259;-73
2022/09/25 04:30:14;;;;;;;2.50;2.28;;;18.70;99.90;;;;;;4147665;28;20272;-72
2022/09/25 04:34:36;;;;;;;3.85;2.20;;;18.70;99.90;;;;;;4147731;28;20229;-72
2022/09/25 04:36:40;;;;;;;4.63;2.35;;;18.70;99.90;;;;;;4147180;28;20627;-72
2022/09/25 04:38:42;;;;;;;4.18;2.60;;;18.70;99.90;;;;;;4147473;28;20657;-73
2022/09/25 04:40:45;;;;;;;3.38;2.63;;;18.70;99.90;;;;;;4147267;28;20220;-73
2022/09/25 04:42:48;;;;;;;3.08;2.42;;;18.60;99.90;;;;;;4147692;28;20628;-73
2022/09/25 04:44:52;;;;;;;3.10;2.40;;;18.60;99.90;;;;;;4146928;28;20736;-73
2022/09/25 04:46:56;;;;;;;3.15;2.17;;;18.60;99.90;;;;;;4147536;28;20217;-72
2022/09/25 04:48:58;;;;;;;2.67;2.28;;;18.70;99.90;;;;;;4146899;28;20217;-73
2022/09/25 04:51:00;;;;;;;3.80;2.65;;;18.70;99.90;;;;;;4146832;28;20652;-73
2022/09/25 04:53:03;;;;;;;2.90;2.30;;;18.70;99.90;;;;;;4147229;28;20237;-72
2022/09/25 04:55:06;;;;;;;2.60;1.83;;;18.70;99.90;;;;;;4147156;28;20213;-72
2022/09/25 04:57:08;;;;;;;3.75;2.50;;;18.60;99.90;;;;;;4147261;28;20225;-72
2022/09/25 04:59:11;;;;;;;3.35;2.33;;;18.70;99.90;;;;;;4147337;28;20259;-72
2022/09/25 05:01:13;;;;;;;3.05;2.40;;;18.60;99.90;;;;;;4147380;28;20224;-72
2022/09/25 05:03:16;;;;;;;3.03;2.28;;;18.60;99.90;;;;;;4147527;28;20221;-73
2022/09/25 05:05:19;;;;;;;3.25;2.50;;;18.60;99.90;;;;;;4145067;28;20226;-73
2022/09/25 05:07:22;;;;;;;2.95;2.35;;;18.60;99.90;;;;;;4142855;28;20255;-73
2022/09/25 05:09:24;;;;;;;2.85;1.90;;;18.60;99.90;;;;;;4149712;28;20279;-73
2022/09/25 05:11:26;;;;;;;4.40;2.35;;;18.60;99.90;;;;;;4150574;28;20248;-73
2022/09/25 05:13:29;;;;;;;2.80;2.47;;;18.60;99.90;;;;;;4147066;28;20213;-73
2022/09/25 05:15:33;;;;;;;2.40;2.20;;;18.60;99.90;;;;;;4149502;28;20279;-72
2022/09/25 05:17:35;;;;;;;2.65;1.92;;;18.60;99.90;;;;;;4150679;28;20225;-73
2022/09/25 05:19:39;;;;;;;2.72;2.30;;;18.60;99.90;;;;;;4150527;28;20221;-73
2022/09/25 05:21:42;;;;;;;2.78;2.03;;;18.60;99.90;;;;;;4150563;28;20220;-73
2022/09/25 05:23:44;;;;;;;2.33;2.05;;;18.60;99.90;;;;;;4149787;28;20271;-73
2022/09/25 05:25:51;;;;;;;2.92;2.28;;;18.60;99.90;;;;;;4150941;28;20213;-73
2022/09/25 05:27:57;;;;;;;2.97;1.95;;;18.60;99.90;;;;;;4143393;28;20706;-73
2022/09/25 05:29:59;;;;;;;2.55;2.08;;;18.60;99.90;;;;;;4150319;28;20271;-73
2022/09/25 05:32:02;;;;;;;3.58;1.92;;;18.60;99.90;;;;;;4142381;28;20249;-72
2022/09/25 05:34:04;;;;;;;2.53;2.00;;;18.60;99.90;;;;;;4150445;28;20217;-73
2022/09/25 05:36:09;;;;;;;2.83;2.30;;;18.60;99.90;;;;;;4144069;28;20291;-73
2022/09/25 05:38:11;;;;;;;2.15;1.83;;;18.60;99.90;;;;;;4150229;28;20215;-73
2022/09/25 05:40:15;;;;;;;2.80;2.25;;;18.60;99.90;;;;;;4150211;28;20259;-73
2022/09/25 05:42:18;;;;;;;2.28;2.00;;;18.60;99.90;;;;;;4150438;28;20210;-73
2022/09/25 05:44:20;;;;;;;3.08;2.30;;;18.60;99.90;;;;;;4139027;28;20221;-73
2022/09/25 05:46:22;;;;;;;2.78;2.20;;;18.60;99.90;;;;;;4150132;28;20268;-73
2022/09/25 05:48:25;;;;;;;2.45;1.85;;;18.60;99.90;;;;;;4150192;28;20221;-73
2022/09/25 05:50:28;;;;;;;3.42;2.25;;;18.60;99.90;;;;;;4149887;28;20233;-73
2022/09/25 05:52:32;;;;;;;4.13;2.40;;;18.60;99.90;;;;;;4141152;28;20237;-73
2022/09/25 05:54:34;;;;;;;2.60;2.00;;;18.60;99.90;;;;;;4149036;28;20576;-73
2022/09/25 05:56:36;;;;;;;2.58;2.03;;;18.50;99.90;;;;;;4149760;28;20229;-73
2022/09/25 05:58:38;;;;;;;3.20;2.30;;;18.60;99.90;;;;;;4150194;28;20570;-73
2022/09/25 06:00:41;;;;;;;3.85;2.20;;;18.60;99.90;;;;;;4149740;28;20244;-73
2022/09/25 06:02:43;;;;;;;2.67;2.00;;;18.50;99.90;;;;;;4149957;28;20213;-73
2022/09/25 06:04:45;;;;;;;2.83;2.00;;;18.60;99.90;;;;;;4150087;28;20217;-73
2022/09/25 06:06:48;;;;;;;2.22;2.00;;;18.60;99.90;;;;;;4149856;28;20213;-73
2022/09/25 06:08:53;;;;;;;3.03;2.33;;;18.60;99.90;;;;;;4149997;28;20613;-73
2022/09/25 06:10:56;;;;;;;3.13;2.30;;;18.60;99.90;;;;;;4149250;28;20834;-73
2022/09/25 06:12:59;;;;;;;2.88;2.10;;;18.60;99.90;;;;;;4149306;28;20268;-73
2022/09/25 06:15:01;;;;;;;3.45;2.22;;;18.60;99.90;;;;;;4149402;28;20283;-73
2022/09/25 06:17:04;;;;;;;2.80;1.88;;;18.60;99.90;;;;;;4149306;28;20287;-73
2022/09/25 06:19:06;;;;;;;2.60;1.80;;;18.60;99.90;;;;;;4149448;28;20213;-73
2022/09/25 06:21:09;;;;;;;3.03;2.30;;;18.50;99.90;;;;;;4148521;28;20209;-73
2022/09/25 06:23:11;;;;;;;2.95;2.15;;;18.50;99.90;;;;;;4149007;28;20602;-72
2022/09/25 06:25:15;;;;;;;3.53;2.00;;;18.50;99.90;;;;;;4149342;28;20657;-72
2022/09/25 06:27:17;;;;;;;2.28;1.90;;;18.50;99.90;;;;;;4149129;28;20279;-73
2022/09/25 06:29:19;;;;;;;2.35;1.83;;;18.50;99.90;;;;;;4149351;28;20213;-73
2022/09/25 06:31:22;;;;;;;2.30;1.92;;;18.50;99.90;;;;;;4149255;28;20244;-72
2022/09/25 06:33:24;;;;;;;2.30;2.10;;;18.60;99.90;;;;;;4149151;28;20240;-73
2022/09/25 06:35:26;;;;;;;3.00;2.17;;;18.50;99.90;;;;;;4148855;28;20279;-73
2022/09/25 06:37:29;;;;;;;3.33;2.10;;;18.50;99.90;;;;;;4148844;28;20616;-75
2022/09/25 06:39:32;;;;;;;2.70;1.90;;;18.50;99.90;;;;;;4147170;28;20724;-76
2022/09/25 06:41:35;;;;;;;2.53;1.90;;;18.60;99.90;;;;;;4148123;28;20222;-72
2022/09/25 06:43:38;;;;;;;2.72;2.13;;;18.50;99.90;;;;;;4148843;28;20229;-73
2022/09/25 06:45:40;;;;;;;2.97;2.10;;;18.60;99.90;;;;;;4148799;28;20221;-73
2022/09/25 06:47:43;;;;;;;2.65;2.05;;;18.50;99.90;;;;;;4149219;28;20612;-73
2022/09/25 06:49:46;;;;;;;3.03;1.90;;;18.60;99.90;;;;;;4149042;28;20241;-73
2022/09/25 06:51:49;;;;;;;2.65;1.98;;;18.50;99.90;;;;;;4148310;28;20267;-73
2022/09/25 06:53:52;;;;;;;3.28;1.92;;;18.60;99.90;;;;;;4147449;28;20237;-72
2022/09/25 06:55:58;;;;;;;1.98;1.70;;;18.50;99.90;;;;;;4149099;28;20279;-73
2022/09/25 06:58:02;;;;;;;2.78;1.90;;;18.50;99.90;;;;;;4149413;28;20225;-73
2022/09/25 07:00:05;;;;;;;2.30;1.77;;;18.60;99.90;;;;;;4148918;28;20213;-73
2022/09/25 07:04:25;;;;;;;2.70;1.85;;;18.60;99.90;;;;;;4148357;28;20658;-73
2022/09/25 07:06:30;;;;;;;2.65;1.88;;;18.60;99.90;;;;;;4148800;28;20217;-72
2022/09/25 07:08:32;;;;;;;3.25;1.85;;;18.50;99.90;;;;;;4148518;28;20605;-72
2022/09/25 07:10:34;;;;;;;1.98;1.77;;;18.60;99.90;;;;;;4148969;28;20217;-72
2022/09/25 07:12:41;;;;;;;3.17;1.95;;;18.50;99.90;;;;;;4148963;28;20287;-75
2022/09/25 07:14:45;;;;;;;2.60;2.00;;;18.60;99.90;;;;;;4149780;28;20220;-72
2022/09/25 07:16:48;;;;;;;3.40;2.15;;;18.50;99.90;;;;;;4148977;28;20217;-72
2022/09/25 07:18:52;;;;;;;3.33;1.83;;;18.50;99.90;;;;;;4148435;28;20260;-73
2022/09/25 07:21:00;;;;;;;3.10;2.10;;;18.60;99.90;;;;;;4148809;28;20221;-72
2022/09/25 07:23:02;;;;;;;1.85;1.70;;;18.60;99.90;;;;;;4148634;28;20216;-73
2022/09/25 07:25:06;;;;;;;2.15;1.90;;;18.60;99.90;;;;;;4148213;28;20308;-72
2022/09/25 07:27:08;;;;;;;2.33;2.13;;;18.50;99.90;;;;;;4148436;28;20221;-72
2022/09/25 07:29:11;;;;;;;2.90;1.90;;;18.60;99.90;;;;;;4148339;28;20263;-72
2022/09/25 07:31:17;;;;;;;2.63;1.92;;;18.60;99.90;;;;;;4148167;28;20287;-73
2022/09/25 07:33:23;;;;;;;2.63;2.00;;;18.60;99.90;;;;;;4147426;28;20287;-73
2022/09/25 07:35:26;;;;;;;2.20;2.00;;;18.60;99.90;;;;;;4147848;28;20698;-73
2022/09/25 07:37:30;;;;;;;2.53;1.90;;;18.60;99.90;;;;;;4146167;28;20634;-73
2022/09/25 07:39:32;;;;;;;2.33;1.98;;;18.60;99.90;;;;;;4147408;28;20229;-73
2022/09/25 07:41:35;;;;;;;2.72;1.88;;;18.60;99.90;;;;;;4147847;28;20260;-73
2022/09/25 07:43:38;;;;;;;2.58;2.15;;;18.60;99.90;;;;;;4148240;28;20209;-73
2022/09/25 07:45:42;;;;;;;2.55;1.85;;;18.60;99.90;;;;;;4147804;28;20245;-73
2022/09/25 07:47:45;;;;;;;2.35;1.83;;;18.60;99.90;;;;;;4148462;28;20639;-72
2022/09/25 07:49:48;;;;;;;2.22;1.90;;;18.60;99.90;;;;;;4147979;28;20232;-73
2022/09/25 07:51:50;;;;;;;2.95;1.90;;;18.60;99.90;;;;;;4147894;28;20221;-73
2022/09/25 07:53:52;;;;;;;2.80;1.88;;;18.60;99.90;;;;;;4148196;28;20283;-73
2022/09/25 07:55:57;;;;;;;2.65;1.90;;;18.60;99.90;;;;;;4148210;28;20654;-73
2022/09/25 07:57:59;;;;;;;2.13;1.85;;;18.60;99.90;;;;;;4147900;28;20283;-72
2022/09/25 08:00:03;;;;;;;2.83;1.70;;;18.60;99.90;;;;;;4147785;28;20286;-73
2022/09/25 08:02:05;;;;;;;1.80;1.70;;;18.60;99.90;;;;;;4148004;28;20212;-73
2022/09/25 08:04:09;;;;;;;3.20;2.03;;;18.60;99.90;;;;;;4148328;28;20616;-73
2022/09/25 08:06:13;;;;;;;2.38;1.70;;;18.60;99.90;;;;;;4148036;28;20213;-72
2022/09/25 08:08:15;;;;;;;2.58;1.88;;;18.60;99.90;;;;;;4147896;28;20214;-73
2022/09/25 08:10:17;;;;;;;1.85;1.60;;;18.60;99.90;;;;;;4147593;28;20261;-73
2022/09/25 08:12:21;;;;;;;3.50;1.73;;;18.60;99.90;;;;;;4147605;28;20221;-73
2022/09/25 08:14:24;;;;;;;2.72;2.10;;;18.60;99.90;;;;;;4147875;28;20288;-73
2022/09/25 08:16:26;;;;;;;2.00;1.77;;;18.60;99.90;;;;;;4148117;28;20217;-73
2022/09/25 08:18:28;;;;;;;2.25;1.70;;;18.60;99.90;;;;;;4138587;28;20610;-73
2022/09/25 08:20:32;;;;;;;2.90;1.92;;;18.60;99.90;;;;;;4147793;28;20638;-73
2022/09/25 08:22:34;;;;;;;2.55;1.67;;;18.60;99.90;;;;;;4147525;28;20217;-73
2022/09/25 08:24:37;;;;;;;2.85;1.83;;;18.60;99.90;;;;;;4146113;28;20213;-73
2022/09/25 08:26:39;;;;;;;2.08;1.63;;;18.60;99.90;;;;;;4146563;28;20209;-73
2022/09/25 08:28:41;;;;;;;4.05;1.80;;;18.60;99.90;;;;;;4146687;28;20225;-73
2022/09/25 08:30:44;;;;;;;2.40;1.75;;;18.60;99.90;;;;;;4146699;28;20328;-73
2022/09/25 08:32:46;;;;;;;2.67;1.95;;;18.60;99.90;;;;;;4147361;28;20221;-72
2022/09/25 08:34:48;;;;;;;4.15;2.03;;;18.70;99.90;;;;;;4146463;28;20292;-73
2022/09/25 08:36:53;;;;;;;2.03;1.52;;;18.60;99.90;;;;;;4146968;28;20324;-72
2022/09/25 08:38:57;;;;;;;2.80;1.67;;;18.70;99.90;;;;;;4147496;28;20217;-73
2022/09/25 08:41:03;;;;;;;2.20;1.60;;;18.70;99.90;;;;;;4146557;28;20227;-72
2022/09/25 08:43:07;;;;;;;2.45;1.60;;;18.70;99.90;;;;;;4146846;28;20229;-73
2022/09/25 08:50:13;;;;;;;2.30;1.90;;;18.70;99.90;;;;;;4140486;28;20244;-73
2022/09/25 08:52:20;;;;;;;3.33;1.75;;;18.70;99.90;;;;;;4145020;28;20720;-73
2022/09/25 08:54:24;;;;;;;2.90;1.63;;;18.70;99.90;;;;;;4147376;28;20236;-73
2022/09/25 08:56:28;;;;;;;1.98;1.40;;;18.60;99.90;;;;;;4155147;28;20658;-73
2022/09/25 08:58:33;;;;;;;3.60;1.70;;;18.70;99.90;;;;;;4147037;28;20271;-72
2022/09/25 09:00:35;;;;;;;2.22;1.58;;;18.70;99.90;;;;;;4147210;28;20224;-73
2022/09/25 09:02:42;;;;;;;2.10;1.52;;;18.70;99.90;;;;;;4147189;28;20224;-73
2022/09/25 09:04:47;;;;;;;2.85;1.55;;;18.70;99.90;;;;;;4147590;28;20217;-73
2022/09/25 09:07:03;;;;;;;2.17;1.45;;;18.70;99.90;;;;;;4147566;28;20217;-73
2022/09/25 09:09:13;;;;;;;2.88;1.73;;;18.70;99.90;;;;;;4142554;28;20596;-73
2022/09/25 09:11:19;;;;;;;2.65;1.58;;;18.70;99.90;;;;;;4147687;28;20259;-73
2022/09/25 09:13:26;;;;;;;2.40;1.80;;;18.70;99.90;;;;;;4147295;28;20217;-73
2022/09/25 09:15:37;;;;;;;1.92;1.52;;;18.70;99.90;;;;;;4147138;28;20256;-73
2022/09/25 09:17:42;;;;;;;1.95;1.60;;;18.70;99.90;;;;;;4147316;28;20221;-73
2022/09/25 09:19:48;;;;;;;2.75;1.90;;;18.70;99.90;;;;;;4134152;28;20260;-73
2022/09/25 09:21:59;;;;;;;2.17;1.60;;;18.70;99.90;;;;;;4147788;28;20228;-73
2022/09/25 09:24:11;;;;;;;1.98;1.63;;;18.70;99.90;;;;;;4147240;28;20213;-73
2022/09/25 09:26:18;;;;;;;3.42;1.85;;;18.70;99.90;;;;;;4144435;28;20271;-73
2022/09/25 09:28:44;;;;;;;2.05;1.42;;;18.70;99.90;;;;;;4146843;28;20271;-74
2022/09/25 09:30:54;;;;;;;2.30;1.60;;;18.70;99.90;;;;;;4147189;28;20221;-73
2022/09/25 09:33:15;;;;;;;2.20;1.40;;;18.70;99.90;;;;;;4146960;28;20246;-73
2022/09/25 09:35:27;;;;;;;2.88;1.35;;;18.70;99.90;;;;;;4146752;28;20652;-73
2022/09/25 09:37:39;;;;;;;1.98;1.48;;;18.70;99.90;;;;;;4147076;28;20267;-73
2022/09/25 09:39:48;;;;;;;2.45;1.70;;;18.70;99.90;;;;;;4146719;28;20733;-73
2022/09/25 09:42:01;;;;;;;2.22;1.55;;;18.70;99.90;;;;;;4139531;28;20286;-73
2022/09/25 09:44:27;;;;;;;2.05;1.75;;;18.70;99.90;;;;;;4146792;28;20221;-72
2022/09/25 09:46:40;;;;;;;2.25;1.75;;;18.70;99.90;;;;;;4146658;28;20221;-73
2022/09/25 09:48:48;;;;;;;2.83;1.70;;;18.70;99.90;;;;;;4146832;28;20221;-73
2022/09/25 09:50:52;;;;;;;2.88;1.73;;;18.70;99.90;;;;;;4146349;28;20236;-73
2022/09/25 09:53:00;;;;;;;2.28;1.48;;;18.70;99.90;;;;;;4146865;28;20631;-72
2022/09/25 09:55:19;;;;;;;2.38;1.77;;;18.70;99.90;;;;;;4146010;28;20282;-76
2022/09/25 09:57:25;;;;;;;1.70;1.50;;;18.70;99.90;;;;;;4145258;28;20274;-76
2022/09/25 09:59:32;;;;;;;2.67;1.42;;;18.70;99.90;;;;;;4147829;28;20225;-76
2022/09/25 10:01:37;;;;;;;3.00;1.90;;;18.80;99.90;;;;;;4147569;28;20217;-76
2022/09/25 10:03:41;;;;;;;3.33;1.58;;;18.80;99.90;;;;;;4147116;28;20237;-76
2022/09/25 10:05:47;;;;;;;1.55;1.40;;;18.80;99.90;;;;;;4136969;28;20283;-76
2022/09/25 10:07:51;;;;;;;2.65;1.48;;;18.80;99.90;;;;;;4147617;28;20271;-76
2022/09/25 10:09:55;;;;;;;1.98;1.52;;;18.80;99.90;;;;;;4147441;28;20224;-76
2022/09/25 10:12:03;;;;;;;2.85;1.65;;;18.80;99.90;;;;;;4135028;28;20232;-76
2022/09/25 10:14:06;;;;;;;1.98;1.55;;;18.80;99.90;;;;;;4146594;28;20216;-76
2022/09/25 10:16:14;;;;;;;3.05;1.70;;;18.80;99.90;;;;;;4147484;28;20229;-75
2022/09/25 10:18:17;;;;;;;2.40;1.65;;;18.80;99.90;;;;;;4147473;28;20649;-76
2022/09/25 10:20:22;;;;;;;2.00;1.35;;;18.80;99.90;;;;;;4147079;28;20221;-76
2022/09/25 10:22:26;;;;;;;6.32;1.80;;;18.70;99.90;;;;;;4147526;28;20225;-76
2022/09/25 10:24:50;;;;;;;2.17;1.40;;;18.80;99.90;;;;;;4147220;28;20213;-76
2022/09/25 10:26:52;;;;;;;1.88;1.58;;;18.80;99.90;;;;;;4140886;28;20257;-76
2022/09/25 10:28:57;;;;;;;2.22;1.40;;;18.80;99.90;;;;;;4147669;28;20295;-76
2022/09/25 10:31:00;;;;;;;2.47;1.67;;;18.80;99.90;;;;;;4147450;28;20263;-76
2022/09/25 10:33:18;;;;;;;2.58;1.60;;;18.80;99.90;;;;;;4147457;28;20276;-76
2022/09/25 10:35:24;;;;;;;1.40;1.30;;;18.90;99.90;;;;;;4147109;28;20288;-76
2022/09/25 10:37:33;;;;;;;2.72;1.73;;;18.80;99.90;;;;;;4147320;28;20217;-76
2022/09/25 10:39:38;;;;;;;3.05;1.58;;;18.80;99.90;;;;;;4146711;28;20225;-76
2022/09/25 10:41:44;;;;;;;1.80;1.30;;;18.90;99.90;;;;;;4147021;28;20569;-76
2022/09/25 10:43:52;;;;;;;2.70;1.58;;;18.90;99.90;;;;;;4142105;28;20279;-76
2022/09/25 10:46:08;;;;;;;2.00;1.52;;;18.90;99.90;;;;;;4147062;28;20213;-76
2022/09/25 10:51:07;;;;;;;2.33;1.50;;;18.90;99.90;;;;;;4148456;28;20237;-75
2022/09/25 10:53:27;;;;;;;2.47;1.50;;;18.90;99.90;;;;;;4148083;28;20260;-76
2022/09/25 10:55:32;;;;;;;1.92;1.45;;;18.90;99.90;;;;;;4147608;28;20237;-76
2022/09/25 10:57:37;;;;;;;2.50;1.70;;;18.90;99.90;;;;;;4147646;28;20262;-75
2022/09/25 10:59:40;;;;;;;2.28;1.58;;;18.90;99.90;;;;;;4146844;28;20229;-76
2022/09/25 11:01:44;;;;;;;2.67;1.40;;;18.90;99.90;;;;;;4147064;28;20271;-76
2022/09/25 11:03:52;;;;;;;2.10;1.63;;;18.90;99.90;;;;;;4146647;28;21095;-76
2022/09/25 11:06:00;;;;;;;2.42;1.42;;;18.90;99.90;;;;;;4146587;28;20216;-76
2022/09/25 11:08:05;;;;;;;3.22;1.88;;;18.90;99.90;;;;;;4146628;28;20263;-76
2022/09/25 11:10:20;;;;;;;2.67;1.60;;;18.90;99.90;;;;;;4146531;28;20217;-76